sensor_id;sensor_type;location;lat;lon;timestamp;temperature;humidity
71523;HTU21D;59343;51.102;5.884;2023-11-21T00:00:52;9.82;87.22
71523;HTU21D;59343;51.102;5.884;2023-11-21T00:03:18;9.86;87.06
71523;HTU21D;59343;51.102;5.884;2023-11-21T00:05:45;9.86;87.10
71523;HTU21D;59343;51.102;5.884;2023-11-21T00:08:11;9.88;87.26
71523;HTU21D;59343;51.102;5.884;2023-11-21T00:10:37;9.90;87.25
71523;HTU21D;59343;51.102;5.884;2023-11-21T00:13:04;9.92;87.23
71523;HTU21D;59343;51.102;5.884;2023-11-21T00:15:30;9.94;87.21
71523;HTU21D;59343;51.102;5.884;2023-11-21T00:17:58;9.92;87.11
71523;HTU21D;59343;51.102;5.884;2023-11-21T00:20:25;9.90;87.18
71523;HTU21D;59343;51.102;5.884;2023-11-21T00:22:51;9.90;87.32
71523;HTU21D;59343;51.102;5.884;2023-11-21T00:25:17;9.92;87.39
71523;HTU21D;59343;51.102;5.884;2023-11-21T00:27:44;9.93;87.42
71523;HTU21D;59343;51.102;5.884;2023-11-21T00:30:11;9.96;87.39
71523;HTU21D;59343;51.102;5.884;2023-11-21T00:32:38;9.98;87.37
71523;HTU21D;59343;51.102;5.884;2023-11-21T00:35:05;9.98;87.25
71523;HTU21D;59343;51.102;5.884;2023-11-21T00:37:32;9.96;87.34
71523;HTU21D;59343;51.102;5.884;2023-11-21T00:39:58;9.97;87.39
71523;HTU21D;59343;51.102;5.884;2023-11-21T00:42:24;9.97;87.50
71523;HTU21D;59343;51.102;5.884;2023-11-21T00:44:51;9.97;87.51
71523;HTU21D;59343;51.102;5.884;2023-11-21T00:47:17;9.96;87.54
71523;HTU21D;59343;51.102;5.884;2023-11-21T00:49:43;9.96;87.79
71523;HTU21D;59343;51.102;5.884;2023-11-21T00:52:10;9.98;87.85
71523;HTU21D;59343;51.102;5.884;2023-11-21T00:54:36;9.99;87.90
71523;HTU21D;59343;51.102;5.884;2023-11-21T00:57:02;10.03;87.99
71523;HTU21D;59343;51.102;5.884;2023-11-21T00:59:29;10.05;87.96
71523;HTU21D;59343;51.102;5.884;2023-11-21T01:01:58;10.03;87.86
71523;HTU21D;59343;51.102;5.884;2023-11-21T01:04:26;10.05;87.93
71523;HTU21D;59343;51.102;5.884;2023-11-21T01:06:54;10.05;88.01
71523;HTU21D;59343;51.102;5.884;2023-11-21T01:09:20;10.07;88.05
71523;HTU21D;59343;51.102;5.884;2023-11-21T01:11:46;10.09;88.05
71523;HTU21D;59343;51.102;5.884;2023-11-21T01:14:13;10.08;88.01
71523;HTU21D;59343;51.102;5.884;2023-11-21T01:16:40;10.05;88.10
71523;HTU21D;59343;51.102;5.884;2023-11-21T01:19:06;10.04;88.06
71523;HTU21D;59343;51.102;5.884;2023-11-21T01:21:32;9.99;88.21
71523;HTU21D;59343;51.102;5.884;2023-11-21T01:24:00;9.98;88.44
71523;HTU21D;59343;51.102;5.884;2023-11-21T01:26:26;10.00;88.64
71523;HTU21D;59343;51.102;5.884;2023-11-21T01:28:52;10.03;88.72
71523;HTU21D;59343;51.102;5.884;2023-11-21T01:31:18;10.07;88.74
71523;HTU21D;59343;51.102;5.884;2023-11-21T01:33:46;10.09;88.53
71523;HTU21D;59343;51.102;5.884;2023-11-21T01:36:13;10.07;88.65
71523;HTU21D;59343;51.102;5.884;2023-11-21T01:38:39;10.09;88.62
71523;HTU21D;59343;51.102;5.884;2023-11-21T01:41:05;10.10;88.73
71523;HTU21D;59343;51.102;5.884;2023-11-21T01:43:32;10.13;88.60
71523;HTU21D;59343;51.102;5.884;2023-11-21T01:45:58;10.13;88.54
71523;HTU21D;59343;51.102;5.884;2023-11-21T01:48:26;10.12;88.46
71523;HTU21D;59343;51.102;5.884;2023-11-21T01:50:53;10.14;88.47
71523;HTU21D;59343;51.102;5.884;2023-11-21T01:53:20;10.12;88.55
71523;HTU21D;59343;51.102;5.884;2023-11-21T01:55:46;10.12;88.59
71523;HTU21D;59343;51.102;5.884;2023-11-21T01:58:13;10.11;88.76
71523;HTU21D;59343;51.102;5.884;2023-11-21T02:00:39;10.15;88.89
71523;HTU21D;59343;51.102;5.884;2023-11-21T02:03:06;10.15;88.80
71523;HTU21D;59343;51.102;5.884;2023-11-21T02:05:33;10.16;88.74
71523;HTU21D;59343;51.102;5.884;2023-11-21T02:08:00;10.18;88.73
71523;HTU21D;59343;51.102;5.884;2023-11-21T02:10:26;10.16;88.83
71523;HTU21D;59343;51.102;5.884;2023-11-21T02:12:53;10.15;88.83
71523;HTU21D;59343;51.102;5.884;2023-11-21T02:15:22;10.18;88.90
71523;HTU21D;59343;51.102;5.884;2023-11-21T02:17:50;10.20;88.87
71523;HTU21D;59343;51.102;5.884;2023-11-21T02:20:23;10.20;88.92
71523;HTU21D;59343;51.102;5.884;2023-11-21T02:25:31;10.19;88.89
71523;HTU21D;59343;51.102;5.884;2023-11-21T02:28:03;10.18;88.89
71523;HTU21D;59343;51.102;5.884;2023-11-21T02:30:30;10.18;88.89
71523;HTU21D;59343;51.102;5.884;2023-11-21T02:33:00;10.16;89.05
71523;HTU21D;59343;51.102;5.884;2023-11-21T02:35:27;10.18;89.11
71523;HTU21D;59343;51.102;5.884;2023-11-21T02:37:54;10.20;89.13
71523;HTU21D;59343;51.102;5.884;2023-11-21T02:40:20;10.21;89.00
71523;HTU21D;59343;51.102;5.884;2023-11-21T02:42:47;10.16;88.93
71523;HTU21D;59343;51.102;5.884;2023-11-21T02:45:21;10.14;88.99
71523;HTU21D;59343;51.102;5.884;2023-11-21T02:47:47;10.12;89.09
71523;HTU21D;59343;51.102;5.884;2023-11-21T02:50:15;10.14;89.09
71523;HTU21D;59343;51.102;5.884;2023-11-21T02:52:41;10.13;89.12
71523;HTU21D;59343;51.102;5.884;2023-11-21T02:55:15;10.12;89.11
71523;HTU21D;59343;51.102;5.884;2023-11-21T02:57:41;10.09;89.20
71523;HTU21D;59343;51.102;5.884;2023-11-21T03:00:08;10.08;89.25
71523;HTU21D;59343;51.102;5.884;2023-11-21T03:02:36;10.08;89.15
71523;HTU21D;59343;51.102;5.884;2023-11-21T03:05:06;10.08;89.28
71523;HTU21D;59343;51.102;5.884;2023-11-21T03:07:37;10.08;89.41
71523;HTU21D;59343;51.102;5.884;2023-11-21T03:10:03;10.11;89.40
71523;HTU21D;59343;51.102;5.884;2023-11-21T03:12:30;10.12;89.44
71523;HTU21D;59343;51.102;5.884;2023-11-21T03:14:57;10.13;89.24
71523;HTU21D;59343;51.102;5.884;2023-11-21T03:17:22;10.13;89.09
71523;HTU21D;59343;51.102;5.884;2023-11-21T03:19:50;10.11;89.05
71523;HTU21D;59343;51.102;5.884;2023-11-21T03:22:20;10.10;89.05
71523;HTU21D;59343;51.102;5.884;2023-11-21T03:24:47;10.07;89.14
71523;HTU21D;59343;51.102;5.884;2023-11-21T03:27:13;10.08;89.18
71523;HTU21D;59343;51.102;5.884;2023-11-21T03:29:40;10.07;89.20
71523;HTU21D;59343;51.102;5.884;2023-11-21T03:32:06;10.08;89.50
71523;HTU21D;59343;51.102;5.884;2023-11-21T03:34:33;10.08;89.60
71523;HTU21D;59343;51.102;5.884;2023-11-21T03:37:02;10.11;89.66
71523;HTU21D;59343;51.102;5.884;2023-11-21T03:39:31;10.11;89.68
71523;HTU21D;59343;51.102;5.884;2023-11-21T03:42:02;10.15;89.81
71523;HTU21D;59343;51.102;5.884;2023-11-21T03:44:29;10.19;89.79
71523;HTU21D;59343;51.102;5.884;2023-11-21T03:46:55;10.20;89.71
71523;HTU21D;59343;51.102;5.884;2023-11-21T03:49:21;10.20;89.72
71523;HTU21D;59343;51.102;5.884;2023-11-21T03:51:48;10.22;89.76
71523;HTU21D;59343;51.102;5.884;2023-11-21T03:54:14;10.26;89.62
71523;HTU21D;59343;51.102;5.884;2023-11-21T03:56:40;10.28;89.60
71523;HTU21D;59343;51.102;5.884;2023-11-21T03:59:06;10.29;89.45
71523;HTU21D;59343;51.102;5.884;2023-11-21T04:01:32;10.31;89.36
71523;HTU21D;59343;51.102;5.884;2023-11-21T04:03:58;10.30;89.38
71523;HTU21D;59343;51.102;5.884;2023-11-21T04:06:25;10.29;89.42
71523;HTU21D;59343;51.102;5.884;2023-11-21T04:08:51;10.29;89.40
71523;HTU21D;59343;51.102;5.884;2023-11-21T04:11:17;10.27;89.42
71523;HTU21D;59343;51.102;5.884;2023-11-21T04:13:44;10.27;89.50
71523;HTU21D;59343;51.102;5.884;2023-11-21T04:16:10;10.27;89.47
71523;HTU21D;59343;51.102;5.884;2023-11-21T04:18:37;10.28;89.50
71523;HTU21D;59343;51.102;5.884;2023-11-21T04:21:05;10.26;89.54
71523;HTU21D;59343;51.102;5.884;2023-11-21T04:23:31;10.25;89.58
71523;HTU21D;59343;51.102;5.884;2023-11-21T04:25:57;10.25;89.79
71523;HTU21D;59343;51.102;5.884;2023-11-21T04:28:25;10.23;89.70
71523;HTU21D;59343;51.102;5.884;2023-11-21T04:30:51;10.22;89.86
71523;HTU21D;59343;51.102;5.884;2023-11-21T04:33:17;10.21;89.83
71523;HTU21D;59343;51.102;5.884;2023-11-21T04:35:43;10.21;89.86
71523;HTU21D;59343;51.102;5.884;2023-11-21T04:38:12;10.23;89.95
71523;HTU21D;59343;51.102;5.884;2023-11-21T04:40:41;10.23;89.99
71523;HTU21D;59343;51.102;5.884;2023-11-21T04:43:07;10.23;90.08
71523;HTU21D;59343;51.102;5.884;2023-11-21T04:45:36;10.26;90.15
71523;HTU21D;59343;51.102;5.884;2023-11-21T04:48:02;10.29;89.93
71523;HTU21D;59343;51.102;5.884;2023-11-21T04:50:29;10.26;89.89
71523;HTU21D;59343;51.102;5.884;2023-11-21T04:52:56;10.27;89.81
71523;HTU21D;59343;51.102;5.884;2023-11-21T04:55:22;10.26;89.94
71523;HTU21D;59343;51.102;5.884;2023-11-21T04:57:48;10.24;90.06
71523;HTU21D;59343;51.102;5.884;2023-11-21T05:00:15;10.22;90.39
71523;HTU21D;59343;51.102;5.884;2023-11-21T05:02:41;10.23;90.50
71523;HTU21D;59343;51.102;5.884;2023-11-21T05:05:08;10.23;90.55
71523;HTU21D;59343;51.102;5.884;2023-11-21T05:07:37;10.24;90.68
71523;HTU21D;59343;51.102;5.884;2023-11-21T05:10:06;10.24;90.44
71523;HTU21D;59343;51.102;5.884;2023-11-21T05:12:45;10.20;90.51
71523;HTU21D;59343;51.102;5.884;2023-11-21T05:15:14;10.15;90.73
71523;HTU21D;59343;51.102;5.884;2023-11-21T05:17:44;10.13;91.10
71523;HTU21D;59343;51.102;5.884;2023-11-21T05:20:13;10.13;91.38
71523;HTU21D;59343;51.102;5.884;2023-11-21T05:22:43;10.14;91.55
71523;HTU21D;59343;51.102;5.884;2023-11-21T05:25:09;10.14;91.51
71523;HTU21D;59343;51.102;5.884;2023-11-21T05:27:40;10.13;91.59
71523;HTU21D;59343;51.102;5.884;2023-11-21T05:30:09;10.13;91.60
71523;HTU21D;59343;51.102;5.884;2023-11-21T05:32:38;10.12;91.64
71523;HTU21D;59343;51.102;5.884;2023-11-21T05:35:05;10.12;91.72
71523;HTU21D;59343;51.102;5.884;2023-11-21T05:37:49;10.14;91.77
71523;HTU21D;59343;51.102;5.884;2023-11-21T05:40:16;10.13;91.75
71523;HTU21D;59343;51.102;5.884;2023-11-21T05:42:42;10.16;91.83
71523;HTU21D;59343;51.102;5.884;2023-11-21T05:45:09;10.22;91.64
71523;HTU21D;59343;51.102;5.884;2023-11-21T05:47:44;10.24;91.65
71523;HTU21D;59343;51.102;5.884;2023-11-21T05:50:16;10.23;91.35
71523;HTU21D;59343;51.102;5.884;2023-11-21T05:52:46;10.21;91.39
71523;HTU21D;59343;51.102;5.884;2023-11-21T05:55:12;10.16;91.52
71523;HTU21D;59343;51.102;5.884;2023-11-21T05:57:41;10.14;91.69
71523;HTU21D;59343;51.102;5.884;2023-11-21T06:00:14;10.20;91.80
71523;HTU21D;59343;51.102;5.884;2023-11-21T06:02:47;10.21;91.63
71523;HTU21D;59343;51.102;5.884;2023-11-21T06:05:13;10.21;91.61
71523;HTU21D;59343;51.102;5.884;2023-11-21T06:07:39;10.24;91.67
71523;HTU21D;59343;51.102;5.884;2023-11-21T06:10:07;10.26;91.60
71523;HTU21D;59343;51.102;5.884;2023-11-21T06:12:37;10.25;91.31
71523;HTU21D;59343;51.102;5.884;2023-11-21T06:15:06;10.23;91.38
71523;HTU21D;59343;51.102;5.884;2023-11-21T06:17:36;10.21;91.37
71523;HTU21D;59343;51.102;5.884;2023-11-21T06:20:11;10.19;91.47
71523;HTU21D;59343;51.102;5.884;2023-11-21T06:22:43;10.20;91.47
71523;HTU21D;59343;51.102;5.884;2023-11-21T06:25:13;10.18;91.59
71523;HTU21D;59343;51.102;5.884;2023-11-21T06:27:44;10.18;91.76
71523;HTU21D;59343;51.102;5.884;2023-11-21T06:30:15;10.21;91.81
71523;HTU21D;59343;51.102;5.884;2023-11-21T06:32:42;10.24;91.79
71523;HTU21D;59343;51.102;5.884;2023-11-21T06:35:12;10.26;91.59
71523;HTU21D;59343;51.102;5.884;2023-11-21T06:37:39;10.27;91.59
71523;HTU21D;59343;51.102;5.884;2023-11-21T06:40:13;10.26;91.43
71523;HTU21D;59343;51.102;5.884;2023-11-21T06:42:44;10.26;91.37
71523;HTU21D;59343;51.102;5.884;2023-11-21T06:45:16;10.26;91.34
71523;HTU21D;59343;51.102;5.884;2023-11-21T06:47:49;10.24;91.60
71523;HTU21D;59343;51.102;5.884;2023-11-21T06:50:38;10.29;91.66
71523;HTU21D;59343;51.102;5.884;2023-11-21T06:53:11;10.35;91.37
71523;HTU21D;59343;51.102;5.884;2023-11-21T06:55:42;10.35;91.00
71523;HTU21D;59343;51.102;5.884;2023-11-21T06:58:14;10.34;90.95
71523;HTU21D;59343;51.102;5.884;2023-11-21T07:00:40;10.31;90.90
71523;HTU21D;59343;51.102;5.884;2023-11-21T07:03:07;10.30;91.02
71523;HTU21D;59343;51.102;5.884;2023-11-21T07:05:36;10.29;91.15
71523;HTU21D;59343;51.102;5.884;2023-11-21T07:08:03;10.31;91.15
71523;HTU21D;59343;51.102;5.884;2023-11-21T07:10:30;10.31;91.12
71523;HTU21D;59343;51.102;5.884;2023-11-21T07:12:57;10.30;91.15
71523;HTU21D;59343;51.102;5.884;2023-11-21T07:15:24;10.36;91.22
71523;HTU21D;59343;51.102;5.884;2023-11-21T07:17:51;10.37;91.02
71523;HTU21D;59343;51.102;5.884;2023-11-21T07:20:20;10.38;91.04
71523;HTU21D;59343;51.102;5.884;2023-11-21T07:22:47;10.39;90.93
71523;HTU21D;59343;51.102;5.884;2023-11-21T07:25:13;10.41;90.94
71523;HTU21D;59343;51.102;5.884;2023-11-21T07:27:40;10.44;90.88
71523;HTU21D;59343;51.102;5.884;2023-11-21T07:30:07;10.46;90.75
71523;HTU21D;59343;51.102;5.884;2023-11-21T07:32:35;10.46;90.71
71523;HTU21D;59343;51.102;5.884;2023-11-21T07:35:05;10.48;90.77
71523;HTU21D;59343;51.102;5.884;2023-11-21T07:37:33;10.49;90.81
71523;HTU21D;59343;51.102;5.884;2023-11-21T07:39:59;10.49;90.76
71523;HTU21D;59343;51.102;5.884;2023-11-21T07:42:26;10.48;90.71
71523;HTU21D;59343;51.102;5.884;2023-11-21T07:44:53;10.51;90.81
71523;HTU21D;59343;51.102;5.884;2023-11-21T07:47:19;10.49;90.83
71523;HTU21D;59343;51.102;5.884;2023-11-21T07:49:45;10.50;90.89
71523;HTU21D;59343;51.102;5.884;2023-11-21T07:52:13;10.51;91.02
71523;HTU21D;59343;51.102;5.884;2023-11-21T07:54:42;10.54;91.05
71523;HTU21D;59343;51.102;5.884;2023-11-21T07:57:08;10.58;91.04
71523;HTU21D;59343;51.102;5.884;2023-11-21T07:59:34;10.59;90.92
71523;HTU21D;59343;51.102;5.884;2023-11-21T08:02:00;10.63;91.01
71523;HTU21D;59343;51.102;5.884;2023-11-21T08:04:29;10.66;91.02
71523;HTU21D;59343;51.102;5.884;2023-11-21T08:06:58;10.69;90.69
71523;HTU21D;59343;51.102;5.884;2023-11-21T08:09:24;10.70;90.68
71523;HTU21D;59343;51.102;5.884;2023-11-21T08:11:51;10.69;90.57
71523;HTU21D;59343;51.102;5.884;2023-11-21T08:14:19;10.70;90.42
71523;HTU21D;59343;51.102;5.884;2023-11-21T08:16:46;10.70;90.59
71523;HTU21D;59343;51.102;5.884;2023-11-21T08:19:18;10.71;90.56
71523;HTU21D;59343;51.102;5.884;2023-11-21T08:21:45;10.73;90.60
71523;HTU21D;59343;51.102;5.884;2023-11-21T08:24:11;10.75;90.41
71523;HTU21D;59343;51.102;5.884;2023-11-21T08:26:38;10.73;90.43
71523;HTU21D;59343;51.102;5.884;2023-11-21T08:29:04;10.75;90.57
71523;HTU21D;59343;51.102;5.884;2023-11-21T08:31:33;10.81;90.56
71523;HTU21D;59343;51.102;5.884;2023-11-21T08:33:59;10.84;90.56
71523;HTU21D;59343;51.102;5.884;2023-11-21T08:36:28;10.88;90.45
71523;HTU21D;59343;51.102;5.884;2023-11-21T08:38:55;10.92;90.37
71523;HTU21D;59343;51.102;5.884;2023-11-21T08:41:21;10.93;90.41
71523;HTU21D;59343;51.102;5.884;2023-11-21T08:43:49;10.97;90.34
71523;HTU21D;59343;51.102;5.884;2023-11-21T08:46:16;11.01;90.24
71523;HTU21D;59343;51.102;5.884;2023-11-21T08:48:48;11.02;90.03
71523;HTU21D;59343;51.102;5.884;2023-11-21T08:51:14;11.04;89.99
71523;HTU21D;59343;51.102;5.884;2023-11-21T08:53:41;11.05;89.97
71523;HTU21D;59343;51.102;5.884;2023-11-21T08:56:15;11.09;90.00
71523;HTU21D;59343;51.102;5.884;2023-11-21T08:58:41;11.14;89.99
71523;HTU21D;59343;51.102;5.884;2023-11-21T09:01:10;11.17;89.88
71523;HTU21D;59343;51.102;5.884;2023-11-21T09:03:38;11.18;89.89
71523;HTU21D;59343;51.102;5.884;2023-11-21T09:06:09;11.20;89.84
71523;HTU21D;59343;51.102;5.884;2023-11-21T09:08:35;11.23;89.71
71523;HTU21D;59343;51.102;5.884;2023-11-21T09:11:04;11.22;89.67
71523;HTU21D;59343;51.102;5.884;2023-11-21T09:13:31;11.23;89.63
71523;HTU21D;59343;51.102;5.884;2023-11-21T09:16:03;11.24;89.74
71523;HTU21D;59343;51.102;5.884;2023-11-21T09:18:32;11.25;89.77
71523;HTU21D;59343;51.102;5.884;2023-11-21T09:20:59;11.28;89.74
71523;HTU21D;59343;51.102;5.884;2023-11-21T09:23:25;11.29;89.57
71523;HTU21D;59343;51.102;5.884;2023-11-21T09:26:00;11.31;89.66
71523;HTU21D;59343;51.102;5.884;2023-11-21T09:28:27;11.34;89.50
71523;HTU21D;59343;51.102;5.884;2023-11-21T09:30:57;11.39;89.62
71523;HTU21D;59343;51.102;5.884;2023-11-21T09:33:23;11.40;89.51
71523;HTU21D;59343;51.102;5.884;2023-11-21T09:35:57;11.40;89.38
71523;HTU21D;59343;51.102;5.884;2023-11-21T09:38:29;11.40;89.44
71523;HTU21D;59343;51.102;5.884;2023-11-21T09:40:55;11.41;89.49
71523;HTU21D;59343;51.102;5.884;2023-11-21T09:43:27;11.44;89.58
71523;HTU21D;59343;51.102;5.884;2023-11-21T09:46:00;11.48;89.57
71523;HTU21D;59343;51.102;5.884;2023-11-21T09:48:30;11.53;89.61
71523;HTU21D;59343;51.102;5.884;2023-11-21T09:50:59;11.58;89.47
71523;HTU21D;59343;51.102;5.884;2023-11-21T09:53:31;11.58;89.21
71523;HTU21D;59343;51.102;5.884;2023-11-21T09:56:00;11.56;89.27
71523;HTU21D;59343;51.102;5.884;2023-11-21T09:58:32;11.54;89.28
71523;HTU21D;59343;51.102;5.884;2023-11-21T10:01:08;11.56;89.31
71523;HTU21D;59343;51.102;5.884;2023-11-21T10:03:40;11.53;89.20
71523;HTU21D;59343;51.102;5.884;2023-11-21T10:06:10;11.48;89.37
71523;HTU21D;59343;51.102;5.884;2023-11-21T10:08:44;11.47;89.63
71523;HTU21D;59343;51.102;5.884;2023-11-21T10:11:25;11.48;89.70
71523;HTU21D;59343;51.102;5.884;2023-11-21T10:14:01;11.51;89.86
71523;HTU21D;59343;51.102;5.884;2023-11-21T10:16:37;11.52;89.54
71523;HTU21D;59343;51.102;5.884;2023-11-21T10:19:10;11.48;89.63
71523;HTU21D;59343;51.102;5.884;2023-11-21T10:21:42;11.47;89.78
71523;HTU21D;59343;51.102;5.884;2023-11-21T10:24:14;11.46;90.08
71523;HTU21D;59343;51.102;5.884;2023-11-21T10:26:44;11.51;90.33
71523;HTU21D;59343;51.102;5.884;2023-11-21T10:29:14;11.55;90.36
71523;HTU21D;59343;51.102;5.884;2023-11-21T10:31:44;11.60;90.21
71523;HTU21D;59343;51.102;5.884;2023-11-21T10:34:25;11.60;90.07
71523;HTU21D;59343;51.102;5.884;2023-11-21T10:36:54;11.61;90.14
71523;HTU21D;59343;51.102;5.884;2023-11-21T10:54:28;11.68;90.37
71523;HTU21D;59343;51.102;5.884;2023-11-21T10:57:10;11.72;90.26
71523;HTU21D;59343;51.102;5.884;2023-11-21T10:59:52;11.76;90.33
71523;HTU21D;59343;51.102;5.884;2023-11-21T11:03:00;11.79;90.45
71523;HTU21D;59343;51.102;5.884;2023-11-21T11:06:00;11.84;90.42
71523;HTU21D;59343;51.102;5.884;2023-11-21T11:08:28;11.90;90.35
71523;HTU21D;59343;51.102;5.884;2023-11-21T11:16:02;12.02;89.95
71523;HTU21D;59343;51.102;5.884;2023-11-21T11:18:56;12.08;89.73
71523;HTU21D;59343;51.102;5.884;2023-11-21T11:38:52;12.02;89.63
71523;HTU21D;59343;51.102;5.884;2023-11-21T11:41:27;12.01;89.66
71523;HTU21D;59343;51.102;5.884;2023-11-21T11:43:59;12.02;89.54
71523;HTU21D;59343;51.102;5.884;2023-11-21T11:46:44;12.03;89.39
71523;HTU21D;59343;51.102;5.884;2023-11-21T11:49:28;12.04;89.48
71523;HTU21D;59343;51.102;5.884;2023-11-21T11:52:47;12.04;89.45
71523;HTU21D;59343;51.102;5.884;2023-11-21T11:55:10;12.05;89.40
71523;HTU21D;59343;51.102;5.884;2023-11-21T11:57:38;12.04;89.28
71523;HTU21D;59343;51.102;5.884;2023-11-21T12:00:22;12.04;89.35
71523;HTU21D;59343;51.102;5.884;2023-11-21T12:03:18;12.05;89.55
71523;HTU21D;59343;51.102;5.884;2023-11-21T12:10:34;12.12;89.55
71523;HTU21D;59343;51.102;5.884;2023-11-21T12:13:10;12.13;89.76
71523;HTU21D;59343;51.102;5.884;2023-11-21T12:15:42;12.15;89.86
71523;HTU21D;59343;51.102;5.884;2023-11-21T12:18:13;12.18;89.86
71523;HTU21D;59343;51.102;5.884;2023-11-21T12:20:49;12.19;89.87
71523;HTU21D;59343;51.102;5.884;2023-11-21T12:23:34;12.20;89.76
71523;HTU21D;59343;51.102;5.884;2023-11-21T12:26:06;12.22;89.85
71523;HTU21D;59343;51.102;5.884;2023-11-21T12:29:10;12.22;89.79
71523;HTU21D;59343;51.102;5.884;2023-11-21T12:32:02;12.23;89.90
71523;HTU21D;59343;51.102;5.884;2023-11-21T12:34:53;12.27;90.00
71523;HTU21D;59343;51.102;5.884;2023-11-21T12:37:23;12.30;89.89
71523;HTU21D;59343;51.102;5.884;2023-11-21T12:39:52;12.31;89.73
71523;HTU21D;59343;51.102;5.884;2023-11-21T12:42:32;12.35;89.79
71523;HTU21D;59343;51.102;5.884;2023-11-21T12:47:59;12.45;89.59
71523;HTU21D;59343;51.102;5.884;2023-11-21T12:50:39;12.47;89.41
71523;HTU21D;59343;51.102;5.884;2023-11-21T12:53:13;12.49;89.15
71523;HTU21D;59343;51.102;5.884;2023-11-21T12:55:48;12.43;89.02
71523;HTU21D;59343;51.102;5.884;2023-11-21T12:58:24;12.34;89.37
71523;HTU21D;59343;51.102;5.884;2023-11-21T13:01:32;12.25;89.51
71523;HTU21D;59343;51.102;5.884;2023-11-21T13:04:10;12.16;89.66
71523;HTU21D;59343;51.102;5.884;2023-11-21T13:06:36;12.08;90.33
71523;HTU21D;59343;51.102;5.884;2023-11-21T13:09:25;12.08;90.75
71523;HTU21D;59343;51.102;5.884;2023-11-21T13:12:17;12.01;90.66
71523;HTU21D;59343;51.102;5.884;2023-11-21T13:15:03;12.02;91.20
71523;HTU21D;59343;51.102;5.884;2023-11-21T13:17:51;12.10;91.40
71523;HTU21D;59343;51.102;5.884;2023-11-21T13:21:00;12.19;91.19
71523;HTU21D;59343;51.102;5.884;2023-11-21T13:23:47;12.15;90.70
71523;HTU21D;59343;51.102;5.884;2023-11-21T13:26:20;12.12;90.77
71523;HTU21D;59343;51.102;5.884;2023-11-21T13:28:52;12.08;90.94
71523;HTU21D;59343;51.102;5.884;2023-11-21T13:31:51;12.10;90.92
71523;HTU21D;59343;51.102;5.884;2023-11-21T13:34:58;12.14;91.02
71523;HTU21D;59343;51.102;5.884;2023-11-21T13:37:49;12.18;91.01
71523;HTU21D;59343;51.102;5.884;2023-11-21T13:40:56;12.23;90.80
71523;HTU21D;59343;51.102;5.884;2023-11-21T13:43:33;12.23;90.65
71523;HTU21D;59343;51.102;5.884;2023-11-21T13:46:01;12.23;90.59
71523;HTU21D;59343;51.102;5.884;2023-11-21T13:49:00;12.17;90.52
71523;HTU21D;59343;51.102;5.884;2023-11-21T13:51:26;12.18;90.47
71523;HTU21D;59343;51.102;5.884;2023-11-21T13:54:03;12.18;90.30
71523;HTU21D;59343;51.102;5.884;2023-11-21T13:56:42;12.19;90.31
71523;HTU21D;59343;51.102;5.884;2023-11-21T13:59:18;12.19;90.18
71523;HTU21D;59343;51.102;5.884;2023-11-21T14:01:55;12.18;90.21
71523;HTU21D;59343;51.102;5.884;2023-11-21T14:04:43;12.15;90.21
71523;HTU21D;59343;51.102;5.884;2023-11-21T14:07:16;12.11;90.28
71523;HTU21D;59343;51.102;5.884;2023-11-21T14:10:12;12.08;90.40
71523;HTU21D;59343;51.102;5.884;2023-11-21T14:12:50;12.05;90.34
71523;HTU21D;59343;51.102;5.884;2023-11-21T14:15:22;12.01;90.28
71523;HTU21D;59343;51.102;5.884;2023-11-21T14:17:56;11.94;90.44
71523;HTU21D;59343;51.102;5.884;2023-11-21T14:20:22;11.91;90.75
71523;HTU21D;59343;51.102;5.884;2023-11-21T14:22:48;11.93;90.80
71523;HTU21D;59343;51.102;5.884;2023-11-21T14:25:15;11.93;90.71
71523;HTU21D;59343;51.102;5.884;2023-11-21T14:27:44;11.89;90.66
71523;HTU21D;59343;51.102;5.884;2023-11-21T14:30:10;11.85;90.82
71523;HTU21D;59343;51.102;5.884;2023-11-21T14:32:39;11.82;90.82
71523;HTU21D;59343;51.102;5.884;2023-11-21T14:35:06;11.82;91.15
71523;HTU21D;59343;51.102;5.884;2023-11-21T14:37:34;11.84;91.15
71523;HTU21D;59343;51.102;5.884;2023-11-21T14:40:01;11.85;91.09
71523;HTU21D;59343;51.102;5.884;2023-11-21T14:42:27;11.85;90.92
71523;HTU21D;59343;51.102;5.884;2023-11-21T14:44:55;11.86;91.02
71523;HTU21D;59343;51.102;5.884;2023-11-21T14:47:29;11.89;91.05
71523;HTU21D;59343;51.102;5.884;2023-11-21T14:49:55;11.91;91.08
71523;HTU21D;59343;51.102;5.884;2023-11-21T14:52:28;11.94;91.12
71523;HTU21D;59343;51.102;5.884;2023-11-21T14:55:01;11.98;90.97
71523;HTU21D;59343;51.102;5.884;2023-11-21T14:57:57;11.96;90.82
71523;HTU21D;59343;51.102;5.884;2023-11-21T15:00:28;11.96;90.86
71523;HTU21D;59343;51.102;5.884;2023-11-21T15:03:12;11.99;90.87
71523;HTU21D;59343;51.102;5.884;2023-11-21T15:05:57;11.98;90.70
71523;HTU21D;59343;51.102;5.884;2023-11-21T15:08:25;11.94;90.80
71523;HTU21D;59343;51.102;5.884;2023-11-21T15:10:58;11.92;90.92
71523;HTU21D;59343;51.102;5.884;2023-11-21T15:13:24;11.90;91.04
71523;HTU21D;59343;51.102;5.884;2023-11-21T15:15:53;11.89;91.06
71523;HTU21D;59343;51.102;5.884;2023-11-21T15:18:25;11.87;90.94
71523;HTU21D;59343;51.102;5.884;2023-11-21T15:20:53;11.85;90.82
71523;HTU21D;59343;51.102;5.884;2023-11-21T15:23:21;11.83;90.95
71523;HTU21D;59343;51.102;5.884;2023-11-21T15:25:47;11.82;91.02
71523;HTU21D;59343;51.102;5.884;2023-11-21T15:28:14;11.82;91.01
71523;HTU21D;59343;51.102;5.884;2023-11-21T15:30:40;11.79;91.00
71523;HTU21D;59343;51.102;5.884;2023-11-21T15:33:06;11.78;91.12
71523;HTU21D;59343;51.102;5.884;2023-11-21T15:35:34;11.76;91.08
71523;HTU21D;59343;51.102;5.884;2023-11-21T15:38:03;11.74;91.18
71523;HTU21D;59343;51.102;5.884;2023-11-21T15:40:30;11.73;91.23
71523;HTU21D;59343;51.102;5.884;2023-11-21T15:42:57;11.71;91.19
71523;HTU21D;59343;51.102;5.884;2023-11-21T15:45:24;11.73;91.18
71523;HTU21D;59343;51.102;5.884;2023-11-21T15:47:53;11.67;91.34
71523;HTU21D;59343;51.102;5.884;2023-11-21T15:50:21;11.63;91.43
71523;HTU21D;59343;51.102;5.884;2023-11-21T15:52:47;11.60;91.59
71523;HTU21D;59343;51.102;5.884;2023-11-21T15:55:15;11.61;91.56
71523;HTU21D;59343;51.102;5.884;2023-11-21T15:57:43;11.61;91.63
71523;HTU21D;59343;51.102;5.884;2023-11-21T16:00:15;11.66;91.62
71523;HTU21D;59343;51.102;5.884;2023-11-21T16:02:46;11.70;91.44
71523;HTU21D;59343;51.102;5.884;2023-11-21T16:05:12;11.72;91.29
71523;HTU21D;59343;51.102;5.884;2023-11-21T16:07:43;11.71;91.10
71523;HTU21D;59343;51.102;5.884;2023-11-21T16:10:10;11.68;91.18
71523;HTU21D;59343;51.102;5.884;2023-11-21T16:12:38;11.68;91.13
71523;HTU21D;59343;51.102;5.884;2023-11-21T16:15:07;11.66;91.34
71523;HTU21D;59343;51.102;5.884;2023-11-21T16:17:37;11.67;91.40
71523;HTU21D;59343;51.102;5.884;2023-11-21T16:20:05;11.68;91.33
71523;HTU21D;59343;51.102;5.884;2023-11-21T16:22:35;11.69;91.33
71523;HTU21D;59343;51.102;5.884;2023-11-21T16:25:01;11.70;91.31
71523;HTU21D;59343;51.102;5.884;2023-11-21T16:27:30;11.70;91.32